sensor_id;sensor_type;location;lat;lon;timestamp;P1;durP1;ratioP1;P2;durP2;ratioP2
39020;SDS011;25188;51.958;5.842;2022-11-28T00:01:44;12.47;;;6.93;;
39020;SDS011;25188;51.958;5.842;2022-11-28T00:04:11;12.63;;;7.60;;
39020;SDS011;25188;51.958;5.842;2022-11-28T00:06:38;11.07;;;6.40;;
39020;SDS011;25188;51.958;5.842;2022-11-28T00:09:05;10.30;;;6.27;;
39020;SDS011;25188;51.958;5.842;2022-11-28T00:11:32;10.67;;;6.30;;
39020;SDS011;25188;51.958;5.842;2022-11-28T00:13:58;9.90;;;6.30;;
39020;SDS011;25188;51.958;5.842;2022-11-28T00:16:24;10.07;;;6.00;;
39020;SDS011;25188;51.958;5.842;2022-11-28T00:18:53;11.83;;;6.73;;
39020;SDS011;25188;51.958;5.842;2022-11-28T00:21:19;14.00;;;6.60;;
39020;SDS011;25188;51.958;5.842;2022-11-28T00:23:46;11.47;;;6.00;;
39020;SDS011;25188;51.958;5.842;2022-11-28T00:26:14;10.30;;;6.13;;
39020;SDS011;25188;51.958;5.842;2022-11-28T00:28:41;10.10;;;5.73;;
39020;SDS011;25188;51.958;5.842;2022-11-28T00:31:11;10.43;;;6.17;;
39020;SDS011;25188;51.958;5.842;2022-11-28T00:33:40;11.93;;;7.07;;
39020;SDS011;25188;51.958;5.842;2022-11-28T00:36:06;10.07;;;5.53;;
39020;SDS011;25188;51.958;5.842;2022-11-28T00:38:32;9.37;;;5.30;;
39020;SDS011;25188;51.958;5.842;2022-11-28T00:41:02;10.50;;;5.40;;
39020;SDS011;25188;51.958;5.842;2022-11-28T00:43:30;11.50;;;6.00;;
39020;SDS011;25188;51.958;5.842;2022-11-28T00:45:56;9.43;;;4.77;;
39020;SDS011;25188;51.958;5.842;2022-11-28T00:48:22;10.73;;;5.57;;
39020;SDS011;25188;51.958;5.842;2022-11-28T00:50:48;9.40;;;5.70;;
39020;SDS011;25188;51.958;5.842;2022-11-28T00:53:14;9.27;;;4.97;;
39020;SDS011;25188;51.958;5.842;2022-11-28T00:55:40;9.83;;;5.37;;
39020;SDS011;25188;51.958;5.842;2022-11-28T00:58:05;12.73;;;5.17;;
39020;SDS011;25188;51.958;5.842;2022-11-28T01:00:31;10.03;;;4.93;;
39020;SDS011;25188;51.958;5.842;2022-11-28T01:02:57;8.53;;;4.83;;
39020;SDS011;25188;51.958;5.842;2022-11-28T01:05:23;10.17;;;5.10;;
39020;SDS011;25188;51.958;5.842;2022-11-28T01:07:49;10.33;;;4.63;;
39020;SDS011;25188;51.958;5.842;2022-11-28T01:10:15;8.53;;;4.77;;
39020;SDS011;25188;51.958;5.842;2022-11-28T01:12:40;10.53;;;4.27;;
39020;SDS011;25188;51.958;5.842;2022-11-28T01:15:07;9.43;;;4.60;;
39020;SDS011;25188;51.958;5.842;2022-11-28T01:17:34;9.97;;;4.93;;
39020;SDS011;25188;51.958;5.842;2022-11-28T01:20:00;10.17;;;4.77;;
39020;SDS011;25188;51.958;5.842;2022-11-28T01:22:26;10.23;;;4.83;;
39020;SDS011;25188;51.958;5.842;2022-11-28T01:24:51;9.10;;;5.00;;
39020;SDS011;25188;51.958;5.842;2022-11-28T01:27:17;7.87;;;5.00;;
39020;SDS011;25188;51.958;5.842;2022-11-28T01:29:43;8.67;;;4.23;;
39020;SDS011;25188;51.958;5.842;2022-11-28T01:32:08;9.57;;;3.93;;
39020;SDS011;25188;51.958;5.842;2022-11-28T01:34:34;10.23;;;4.00;;
39020;SDS011;25188;51.958;5.842;2022-11-28T01:36:59;8.57;;;4.37;;
39020;SDS011;25188;51.958;5.842;2022-11-28T01:39:25;9.50;;;4.70;;
39020;SDS011;25188;51.958;5.842;2022-11-28T01:41:50;8.40;;;4.37;;
39020;SDS011;25188;51.958;5.842;2022-11-28T01:46:42;8.70;;;4.33;;
39020;SDS011;25188;51.958;5.842;2022-11-28T01:49:09;9.50;;;4.80;;
39020;SDS011;25188;51.958;5.842;2022-11-28T01:51:39;8.97;;;4.00;;
39020;SDS011;25188;51.958;5.842;2022-11-28T01:54:09;7.60;;;4.20;;
39020;SDS011;25188;51.958;5.842;2022-11-28T01:56:43;9.20;;;4.07;;
39020;SDS011;25188;51.958;5.842;2022-11-28T01:59:15;8.27;;;3.60;;
39020;SDS011;25188;51.958;5.842;2022-11-28T02:01:41;6.83;;;4.03;;
39020;SDS011;25188;51.958;5.842;2022-11-28T02:04:08;8.83;;;4.97;;
39020;SDS011;25188;51.958;5.842;2022-11-28T02:06:34;7.40;;;4.17;;
39020;SDS011;25188;51.958;5.842;2022-11-28T02:09:00;8.40;;;4.37;;
39020;SDS011;25188;51.958;5.842;2022-11-28T02:14:13;10.20;;;5.40;;
39020;SDS011;25188;51.958;5.842;2022-11-28T02:22:18;11.07;;;4.43;;
39020;SDS011;25188;51.958;5.842;2022-11-28T02:24:55;11.03;;;4.67;;
39020;SDS011;25188;51.958;5.842;2022-11-28T02:46:36;9.73;;;6.17;;
39020;SDS011;25188;51.958;5.842;2022-11-28T02:49:50;9.10;;;5.43;;
39020;SDS011;25188;51.958;5.842;2022-11-28T02:52:28;13.47;;;6.23;;
39020;SDS011;25188;51.958;5.842;2022-11-28T02:55:02;11.73;;;5.70;;
39020;SDS011;25188;51.958;5.842;2022-11-28T02:57:42;10.13;;;5.53;;
39020;SDS011;25188;51.958;5.842;2022-11-28T03:05:42;11.33;;;6.43;;
39020;SDS011;25188;51.958;5.842;2022-11-28T03:08:34;11.85;;;6.93;;
39020;SDS011;25188;51.958;5.842;2022-11-28T03:23:00;12.67;;;6.17;;
39020;SDS011;25188;51.958;5.842;2022-11-28T03:30:56;10.57;;;5.07;;
39020;SDS011;25188;51.958;5.842;2022-11-28T03:33:30;8.93;;;4.90;;
39020;SDS011;25188;51.958;5.842;2022-11-28T03:36:22;9.83;;;5.50;;
39020;SDS011;25188;51.958;5.842;2022-11-28T03:38:57;9.40;;;4.93;;
39020;SDS011;25188;51.958;5.842;2022-11-28T03:41:32;8.70;;;5.10;;
39020;SDS011;25188;51.958;5.842;2022-11-28T03:44:05;8.77;;;4.80;;
39020;SDS011;25188;51.958;5.842;2022-11-28T03:46:36;10.10;;;4.67;;
39020;SDS011;25188;51.958;5.842;2022-11-28T03:49:07;10.33;;;5.13;;
39020;SDS011;25188;51.958;5.842;2022-11-28T03:51:39;9.63;;;5.03;;
39020;SDS011;25188;51.958;5.842;2022-11-28T03:54:11;9.23;;;4.70;;
39020;SDS011;25188;51.958;5.842;2022-11-28T03:59:59;8.73;;;4.47;;
39020;SDS011;25188;51.958;5.842;2022-11-28T04:10:33;10.40;;;6.43;;
39020;SDS011;25188;51.958;5.842;2022-11-28T04:13:06;10.30;;;6.53;;
39020;SDS011;25188;51.958;5.842;2022-11-28T04:15:58;12.57;;;7.00;;
39020;SDS011;25188;51.958;5.842;2022-11-28T04:21:30;10.80;;;6.80;;
39020;SDS011;25188;51.958;5.842;2022-11-28T04:24:02;10.40;;;6.57;;
39020;SDS011;25188;51.958;5.842;2022-11-28T04:26:35;14.57;;;6.88;;
39020;SDS011;25188;51.958;5.842;2022-11-28T04:29:13;10.80;;;6.77;;
39020;SDS011;25188;51.958;5.842;2022-11-28T04:31:41;9.83;;;5.80;;
39020;SDS011;25188;51.958;5.842;2022-11-28T04:34:10;9.13;;;5.93;;
39020;SDS011;25188;51.958;5.842;2022-11-28T04:36:40;11.43;;;5.97;;
39020;SDS011;25188;51.958;5.842;2022-11-28T04:39:11;10.80;;;6.17;;
39020;SDS011;25188;51.958;5.842;2022-11-28T04:41:41;12.53;;;6.40;;
39020;SDS011;25188;51.958;5.842;2022-11-28T04:46:53;9.50;;;6.20;;
39020;SDS011;25188;51.958;5.842;2022-11-28T04:49:20;9.60;;;6.47;;
39020;SDS011;25188;51.958;5.842;2022-11-28T04:51:57;9.17;;;5.57;;
39020;SDS011;25188;51.958;5.842;2022-11-28T04:54:47;10.30;;;6.37;;
39020;SDS011;25188;51.958;5.842;2022-11-28T04:57:39;9.77;;;5.90;;
39020;SDS011;25188;51.958;5.842;2022-11-28T05:00:09;13.33;;;5.73;;
39020;SDS011;25188;51.958;5.842;2022-11-28T05:02:37;10.37;;;6.40;;
39020;SDS011;25188;51.958;5.842;2022-11-28T05:05:09;10.20;;;5.53;;
39020;SDS011;25188;51.958;5.842;2022-11-28T05:07:37;9.27;;;5.43;;
39020;SDS011;25188;51.958;5.842;2022-11-28T05:10:03;9.10;;;5.63;;
39020;SDS011;25188;51.958;5.842;2022-11-28T05:12:30;12.20;;;5.63;;
39020;SDS011;25188;51.958;5.842;2022-11-28T05:14:55;8.93;;;5.47;;
39020;SDS011;25188;51.958;5.842;2022-11-28T05:17:21;8.13;;;5.00;;
39020;SDS011;25188;51.958;5.842;2022-11-28T05:19:46;9.37;;;5.87;;
39020;SDS011;25188;51.958;5.842;2022-11-28T05:22:12;8.23;;;5.00;;
39020;SDS011;25188;51.958;5.842;2022-11-28T05:24:38;9.43;;;5.63;;
39020;SDS011;25188;51.958;5.842;2022-11-28T05:27:03;8.17;;;4.90;;
39020;SDS011;25188;51.958;5.842;2022-11-28T05:29:29;9.97;;;5.03;;
39020;SDS011;25188;51.958;5.842;2022-11-28T05:31:54;7.57;;;5.43;;
39020;SDS011;25188;51.958;5.842;2022-11-28T05:34:20;8.40;;;4.90;;
39020;SDS011;25188;51.958;5.842;2022-11-28T05:36:46;8.73;;;4.60;;
39020;SDS011;25188;51.958;5.842;2022-11-28T05:39:11;8.83;;;4.73;;
39020;SDS011;25188;51.958;5.842;2022-11-28T05:41:37;7.20;;;4.40;;
39020;SDS011;25188;51.958;5.842;2022-11-28T05:44:03;8.53;;;4.47;;
39020;SDS011;25188;51.958;5.842;2022-11-28T05:46:28;7.83;;;4.63;;
39020;SDS011;25188;51.958;5.842;2022-11-28T05:48:54;7.43;;;4.53;;
39020;SDS011;25188;51.958;5.842;2022-11-28T05:51:20;6.60;;;3.93;;
39020;SDS011;25188;51.958;5.842;2022-11-28T05:53:46;8.50;;;4.80;;
39020;SDS011;25188;51.958;5.842;2022-11-28T05:56:13;8.47;;;4.60;;
39020;SDS011;25188;51.958;5.842;2022-11-28T05:58:42;7.20;;;4.60;;
39020;SDS011;25188;51.958;5.842;2022-11-28T06:01:16;7.60;;;4.37;;
39020;SDS011;25188;51.958;5.842;2022-11-28T06:03:44;7.27;;;4.27;;
39020;SDS011;25188;51.958;5.842;2022-11-28T06:06:20;6.97;;;4.07;;
39020;SDS011;25188;51.958;5.842;2022-11-28T06:08:46;6.83;;;4.20;;
39020;SDS011;25188;51.958;5.842;2022-11-28T06:11:13;7.83;;;4.37;;
39020;SDS011;25188;51.958;5.842;2022-11-28T06:13:40;7.93;;;3.97;;
39020;SDS011;25188;51.958;5.842;2022-11-28T06:16:10;6.43;;;4.30;;
39020;SDS011;25188;51.958;5.842;2022-11-28T06:18:38;6.80;;;4.30;;
39020;SDS011;25188;51.958;5.842;2022-11-28T06:21:05;6.33;;;3.80;;
39020;SDS011;25188;51.958;5.842;2022-11-28T06:23:32;6.97;;;4.07;;
39020;SDS011;25188;51.958;5.842;2022-11-28T06:26:02;7.17;;;3.93;;
39020;SDS011;25188;51.958;5.842;2022-11-28T06:28:30;6.07;;;4.00;;
39020;SDS011;25188;51.958;5.842;2022-11-28T06:30:55;5.93;;;3.93;;
39020;SDS011;25188;51.958;5.842;2022-11-28T06:33:21;5.93;;;3.80;;
39020;SDS011;25188;51.958;5.842;2022-11-28T06:35:47;7.23;;;4.43;;
39020;SDS011;25188;51.958;5.842;2022-11-28T06:38:12;8.23;;;4.20;;
39020;SDS011;25188;51.958;5.842;2022-11-28T06:40:39;6.47;;;3.80;;
39020;SDS011;25188;51.958;5.842;2022-11-28T06:43:05;8.10;;;4.33;;
39020;SDS011;25188;51.958;5.842;2022-11-28T06:45:33;6.67;;;3.77;;
39020;SDS011;25188;51.958;5.842;2022-11-28T06:47:59;7.47;;;3.83;;
39020;SDS011;25188;51.958;5.842;2022-11-28T06:50:26;5.83;;;3.90;;
39020;SDS011;25188;51.958;5.842;2022-11-28T06:52:53;5.93;;;3.90;;
39020;SDS011;25188;51.958;5.842;2022-11-28T06:55:19;6.37;;;3.93;;
39020;SDS011;25188;51.958;5.842;2022-11-28T06:57:44;7.67;;;4.40;;
39020;SDS011;25188;51.958;5.842;2022-11-28T07:00:10;8.43;;;4.43;;
39020;SDS011;25188;51.958;5.842;2022-11-28T07:02:37;6.70;;;4.10;;
39020;SDS011;25188;51.958;5.842;2022-11-28T07:05:02;6.77;;;4.23;;
39020;SDS011;25188;51.958;5.842;2022-11-28T07:07:28;6.60;;;3.93;;
39020;SDS011;25188;51.958;5.842;2022-11-28T07:09:54;6.20;;;4.07;;
39020;SDS011;25188;51.958;5.842;2022-11-28T07:12:19;6.43;;;4.17;;
39020;SDS011;25188;51.958;5.842;2022-11-28T07:14:45;9.87;;;4.27;;
39020;SDS011;25188;51.958;5.842;2022-11-28T07:17:11;7.63;;;4.63;;
39020;SDS011;25188;51.958;5.842;2022-11-28T07:19:37;6.60;;;4.30;;
39020;SDS011;25188;51.958;5.842;2022-11-28T07:22:03;10.00;;;5.10;;
39020;SDS011;25188;51.958;5.842;2022-11-28T07:24:28;7.30;;;4.93;;
39020;SDS011;25188;51.958;5.842;2022-11-28T07:26:54;8.37;;;4.43;;
39020;SDS011;25188;51.958;5.842;2022-11-28T07:29:20;8.67;;;4.93;;
39020;SDS011;25188;51.958;5.842;2022-11-28T07:31:47;7.90;;;5.13;;
39020;SDS011;25188;51.958;5.842;2022-11-28T07:34:13;7.90;;;5.07;;
39020;SDS011;25188;51.958;5.842;2022-11-28T07:36:38;8.23;;;5.10;;
39020;SDS011;25188;51.958;5.842;2022-11-28T07:39:05;7.83;;;4.63;;
39020;SDS011;25188;51.958;5.842;2022-11-28T07:41:32;8.07;;;5.47;;
39020;SDS011;25188;51.958;5.842;2022-11-28T07:43:59;7.70;;;5.37;;
39020;SDS011;25188;51.958;5.842;2022-11-28T07:46:26;7.90;;;5.53;;
39020;SDS011;25188;51.958;5.842;2022-11-28T07:48:53;8.33;;;5.43;;
39020;SDS011;25188;51.958;5.842;2022-11-28T07:51:21;9.53;;;6.03;;
39020;SDS011;25188;51.958;5.842;2022-11-28T07:53:48;11.07;;;5.70;;
39020;SDS011;25188;51.958;5.842;2022-11-28T07:56:17;9.17;;;6.20;;
39020;SDS011;25188;51.958;5.842;2022-11-28T07:58:45;9.67;;;5.93;;
39020;SDS011;25188;51.958;5.842;2022-11-28T08:01:15;8.43;;;6.03;;
39020;SDS011;25188;51.958;5.842;2022-11-28T08:03:43;9.30;;;6.10;;
39020;SDS011;25188;51.958;5.842;2022-11-28T08:06:09;9.00;;;6.13;;
39020;SDS011;25188;51.958;5.842;2022-11-28T08:08:35;10.73;;;6.67;;
39020;SDS011;25188;51.958;5.842;2022-11-28T08:11:02;12.27;;;6.10;;
39020;SDS011;25188;51.958;5.842;2022-11-28T08:13:30;8.87;;;5.70;;
39020;SDS011;25188;51.958;5.842;2022-11-28T08:15:55;9.57;;;6.63;;
39020;SDS011;25188;51.958;5.842;2022-11-28T08:18:21;8.97;;;5.93;;
39020;SDS011;25188;51.958;5.842;2022-11-28T08:20:47;9.70;;;7.07;;
39020;SDS011;25188;51.958;5.842;2022-11-28T08:23:13;8.63;;;5.60;;
39020;SDS011;25188;51.958;5.842;2022-11-28T08:25:39;9.43;;;6.10;;
39020;SDS011;25188;51.958;5.842;2022-11-28T08:28:05;10.80;;;5.57;;
39020;SDS011;25188;51.958;5.842;2022-11-28T08:30:30;9.50;;;6.27;;
39020;SDS011;25188;51.958;5.842;2022-11-28T08:32:56;12.77;;;6.77;;
39020;SDS011;25188;51.958;5.842;2022-11-28T08:35:22;9.13;;;5.93;;
39020;SDS011;25188;51.958;5.842;2022-11-28T08:37:48;9.97;;;6.43;;
39020;SDS011;25188;51.958;5.842;2022-11-28T08:40:13;13.57;;;7.20;;
39020;SDS011;25188;51.958;5.842;2022-11-28T08:42:39;9.73;;;7.23;;
39020;SDS011;25188;51.958;5.842;2022-11-28T08:45:06;10.00;;;7.27;;
39020;SDS011;25188;51.958;5.842;2022-11-28T08:47:32;10.83;;;7.37;;
39020;SDS011;25188;51.958;5.842;2022-11-28T08:49:58;12.07;;;7.17;;
39020;SDS011;25188;51.958;5.842;2022-11-28T08:52:24;10.70;;;7.13;;
39020;SDS011;25188;51.958;5.842;2022-11-28T08:54:49;10.63;;;7.30;;
39020;SDS011;25188;51.958;5.842;2022-11-28T08:57:15;11.60;;;8.10;;
39020;SDS011;25188;51.958;5.842;2022-11-28T08:59:41;10.43;;;7.10;;
39020;SDS011;25188;51.958;5.842;2022-11-28T09:02:09;10.97;;;7.50;;
39020;SDS011;25188;51.958;5.842;2022-11-28T09:04:36;11.67;;;7.27;;
39020;SDS011;25188;51.958;5.842;2022-11-28T09:07:02;12.27;;;7.20;;
39020;SDS011;25188;51.958;5.842;2022-11-28T09:09:28;11.67;;;7.67;;
39020;SDS011;25188;51.958;5.842;2022-11-28T09:11:53;11.47;;;7.33;;
39020;SDS011;25188;51.958;5.842;2022-11-28T09:14:19;12.10;;;7.60;;
39020;SDS011;25188;51.958;5.842;2022-11-28T09:16:45;10.60;;;6.80;;
39020;SDS011;25188;51.958;5.842;2022-11-28T09:19:10;9.43;;;6.63;;
39020;SDS011;25188;51.958;5.842;2022-11-28T09:21:36;10.70;;;7.07;;
39020;SDS011;25188;51.958;5.842;2022-11-28T09:24:02;12.70;;;6.73;;
39020;SDS011;25188;51.958;5.842;2022-11-28T09:26:28;11.33;;;7.33;;
39020;SDS011;25188;51.958;5.842;2022-11-28T09:28:54;14.47;;;7.07;;
39020;SDS011;25188;51.958;5.842;2022-11-28T09:31:20;10.83;;;8.43;;
39020;SDS011;25188;51.958;5.842;2022-11-28T09:33:46;11.03;;;7.70;;
39020;SDS011;25188;51.958;5.842;2022-11-28T09:36:15;11.73;;;7.20;;
39020;SDS011;25188;51.958;5.842;2022-11-28T09:38:42;11.03;;;7.80;;
39020;SDS011;25188;51.958;5.842;2022-11-28T09:41:42;10.87;;;7.23;;
39020;SDS011;25188;51.958;5.842;2022-11-28T09:44:14;10.27;;;6.63;;
39020;SDS011;25188;51.958;5.842;2022-11-28T09:47:05;10.38;;;6.95;;
39020;SDS011;25188;51.958;5.842;2022-11-28T09:49:43;9.70;;;6.90;;
39020;SDS011;25188;51.958;5.842;2022-11-28T09:55:37;9.90;;;6.83;;
39020;SDS011;25188;51.958;5.842;2022-11-28T09:58:05;9.87;;;6.90;;
39020;SDS011;25188;51.958;5.842;2022-11-28T10:01:07;9.80;;;6.93;;
39020;SDS011;25188;51.958;5.842;2022-11-28T10:17:32;8.90;;;6.20;;
39020;SDS011;25188;51.958;5.842;2022-11-28T10:20:17;8.10;;;5.20;;
39020;SDS011;25188;51.958;5.842;2022-11-28T10:26:06;8.67;;;5.53;;
39020;SDS011;25188;51.958;5.842;2022-11-28T10:28:37;9.30;;;6.00;;
39020;SDS011;25188;51.958;5.842;2022-11-28T10:39:29;9.87;;;5.80;;
39020;SDS011;25188;51.958;5.842;2022-11-28T10:44:55;8.57;;;5.37;;
39020;SDS011;25188;51.958;5.842;2022-11-28T10:56:02;11.40;;;6.87;;
39020;SDS011;25188;51.958;5.842;2022-11-28T10:58:45;10.70;;;6.83;;
39020;SDS011;25188;51.958;5.842;2022-11-28T11:01:30;12.07;;;7.90;;
39020;SDS011;25188;51.958;5.842;2022-11-28T11:04:01;13.60;;;7.60;;
39020;SDS011;25188;51.958;5.842;2022-11-28T11:06:28;13.87;;;7.80;;
39020;SDS011;25188;51.958;5.842;2022-11-28T11:08:53;11.53;;;7.87;;
39020;SDS011;25188;51.958;5.842;2022-11-28T11:19:28;16.13;;;9.95;;
39020;SDS011;25188;51.958;5.842;2022-11-28T11:22:04;12.47;;;8.20;;
39020;SDS011;25188;51.958;5.842;2022-11-28T11:27:03;15.47;;;8.93;;
39020;SDS011;25188;51.958;5.842;2022-11-28T11:29:32;12.53;;;8.17;;
39020;SDS011;25188;51.958;5.842;2022-11-28T11:32:01;15.80;;;9.60;;
39020;SDS011;25188;51.958;5.842;2022-11-28T11:34:36;13.63;;;8.87;;
39020;SDS011;25188;51.958;5.842;2022-11-28T11:39:52;16.33;;;9.68;;
39020;SDS011;25188;51.958;5.842;2022-11-28T11:42:19;16.67;;;9.40;;
39020;SDS011;25188;51.958;5.842;2022-11-28T11:44:46;13.90;;;9.70;;
39020;SDS011;25188;51.958;5.842;2022-11-28T11:47:12;15.10;;;9.70;;
39020;SDS011;25188;51.958;5.842;2022-11-28T11:49:38;13.93;;;9.70;;
39020;SDS011;25188;51.958;5.842;2022-11-28T11:57:23;14.13;;;9.07;;
39020;SDS011;25188;51.958;5.842;2022-11-28T11:59:57;15.17;;;9.50;;
39020;SDS011;25188;51.958;5.842;2022-11-28T12:05:08;13.87;;;8.97;;
39020;SDS011;25188;51.958;5.842;2022-11-28T12:07:40;13.43;;;9.00;;
39020;SDS011;25188;51.958;5.842;2022-11-28T12:10:29;15.73;;;9.97;;
39020;SDS011;25188;51.958;5.842;2022-11-28T12:13:02;14.03;;;9.80;;
39020;SDS011;25188;51.958;5.842;2022-11-28T12:34:13;16.13;;;8.77;;
39020;SDS011;25188;51.958;5.842;2022-11-28T12:36:56;13.93;;;8.07;;
39020;SDS011;25188;51.958;5.842;2022-11-28T12:59:00;12.57;;;8.30;;
39020;SDS011;25188;51.958;5.842;2022-11-28T13:04:05;11.85;;;7.75;;
39020;SDS011;25188;51.958;5.842;2022-11-28T13:06:59;12.45;;;8.20;;
39020;SDS011;25188;51.958;5.842;2022-11-28T13:09:32;14.60;;;8.97;;
39020;SDS011;25188;51.958;5.842;2022-11-28T13:12:21;13.00;;;7.90;;
39020;SDS011;25188;51.958;5.842;2022-11-28T13:14:58;11.60;;;7.40;;
39020;SDS011;25188;51.958;5.842;2022-11-28T13:20:07;12.38;;;7.75;;
39020;SDS011;25188;51.958;5.842;2022-11-28T13:25:49;11.00;;;7.10;;
39020;SDS011;25188;51.958;5.842;2022-11-28T13:28:37;12.23;;;8.27;;
39020;SDS011;25188;51.958;5.842;2022-11-28T13:31:20;11.40;;;7.57;;
39020;SDS011;25188;51.958;5.842;2022-11-28T13:33:50;12.83;;;8.27;;
39020;SDS011;25188;51.958;5.842;2022-11-28T13:39:48;15.20;;;8.57;;
39020;SDS011;25188;51.958;5.842;2022-11-28T13:44:45;13.80;;;8.47;;
39020;SDS011;25188;51.958;5.842;2022-11-28T13:49:45;12.00;;;8.00;;
39020;SDS011;25188;51.958;5.842;2022-11-28T13:59:52;12.90;;;8.33;;
39020;SDS011;25188;51.958;5.842;2022-11-28T14:05:14;12.17;;;8.23;;
39020;SDS011;25188;51.958;5.842;2022-11-28T14:08:01;14.77;;;7.72;;
39020;SDS011;25188;51.958;5.842;2022-11-28T14:10:39;14.13;;;8.27;;
39020;SDS011;25188;51.958;5.842;2022-11-28T14:18:59;14.67;;;8.67;;
39020;SDS011;25188;51.958;5.842;2022-11-28T14:29:34;15.52;;;8.90;;
39020;SDS011;25188;51.958;5.842;2022-11-28T14:32:02;20.45;;;10.35;;
39020;SDS011;25188;51.958;5.842;2022-11-28T14:34:45;20.73;;;10.37;;
39020;SDS011;25188;51.958;5.842;2022-11-28T14:39:44;22.75;;;11.75;;
39020;SDS011;25188;51.958;5.842;2022-11-28T14:52:29;22.58;;;12.68;;
39020;SDS011;25188;51.958;5.842;2022-11-28T14:54:55;28.77;;;14.07;;
39020;SDS011;25188;51.958;5.842;2022-11-28T14:57:31;38.78;;;16.50;;
39020;SDS011;25188;51.958;5.842;2022-11-28T15:00:23;34.35;;;15.60;;
39020;SDS011;25188;51.958;5.842;2022-11-28T15:05:35;36.33;;;18.37;;
39020;SDS011;25188;51.958;5.842;2022-11-28T15:11:09;33.47;;;16.25;;
39020;SDS011;25188;51.958;5.842;2022-11-28T15:16:21;36.23;;;16.27;;
39020;SDS011;25188;51.958;5.842;2022-11-28T15:18:48;39.72;;;18.83;;
39020;SDS011;25188;51.958;5.842;2022-11-28T15:21:17;33.77;;;17.33;;
39020;SDS011;25188;51.958;5.842;2022-11-28T15:23:44;35.77;;;18.50;;
39020;SDS011;25188;51.958;5.842;2022-11-28T15:26:20;39.20;;;19.20;;
39020;SDS011;25188;51.958;5.842;2022-11-28T15:31:47;38.73;;;19.63;;
39020;SDS011;25188;51.958;5.842;2022-11-28T15:34:25;45.67;;;20.60;;
39020;SDS011;25188;51.958;5.842;2022-11-28T15:36:53;47.37;;;20.83;;
39020;SDS011;25188;51.958;5.842;2022-11-28T15:39:23;41.53;;;20.47;;
39020;SDS011;25188;51.958;5.842;2022-11-28T15:42:26;43.13;;;21.17;;
39020;SDS011;25188;51.958;5.842;2022-11-28T15:47:43;45.33;;;21.88;;
39020;SDS011;25188;51.958;5.842;2022-11-28T15:52:53;47.22;;;22.80;;
39020;SDS011;25188;51.958;5.842;2022-11-28T15:55:20;43.60;;;21.63;;
39020;SDS011;25188;51.958;5.842;2022-11-28T15:57:46;44.33;;;23.07;;
39020;SDS011;25188;51.958;5.842;2022-11-28T16:00:12;46.47;;;23.15;;
39020;SDS011;25188;51.958;5.842;2022-11-28T16:02:42;46.60;;;23.45;;
39020;SDS011;25188;51.958;5.842;2022-11-28T16:05:13;51.70;;;23.90;;
39020;SDS011;25188;51.958;5.842;2022-11-28T16:07:45;53.13;;;25.65;;
39020;SDS011;25188;51.958;5.842;2022-11-28T16:10:19;58.90;;;27.27;;
39020;SDS011;25188;51.958;5.842;2022-11-28T16:12:46;64.78;;;30.60;;
39020;SDS011;25188;51.958;5.842;2022-11-28T16:15:18;57.72;;;28.77;;
39020;SDS011;25188;51.958;5.842;2022-11-28T16:20:22;55.97;;;27.00;;
39020;SDS011;25188;51.958;5.842;2022-11-28T16:22:56;57.45;;;27.02;;
39020;SDS011;25188;51.958;5.842;2022-11-28T16:25:24;60.58;;;30.85;;
39020;SDS011;25188;51.958;5.842;2022-11-28T16:27:51;61.40;;;30.08;;
39020;SDS011;25188;51.958;5.842;2022-11-28T16:32:50;66.40;;;33.60;;
39020;SDS011;25188;51.958;5.842;2022-11-28T16:35:24;68.93;;;33.65;;
39020;SDS011;25188;51.958;5.842;2022-11-28T16:40:38;72.95;;;34.20;;
39020;SDS011;25188;51.958;5.842;2022-11-28T16:43:03;71.05;;;33.10;;
39020;SDS011;25188;51.958;5.842;2022-11-28T16:45:32;69.57;;;32.00;;
39020;SDS011;25188;51.958;5.842;2022-11-28T16:48:08;70.80;;;33.80;;
39020;SDS011;25188;51.958;5.842;2022-11-28T16:50:39;71.95;;;34.80;;
39020;SDS011;25188;51.958;5.842;2022-11-28T16:56:47;75.57;;;33.87;;
39020;SDS011;25188;51.958;5.842;2022-11-28T17:01:39;72.20;;;33.17;;
39020;SDS011;25188;51.958;5.842;2022-11-28T17:04:14;67.00;;;31.70;;
39020;SDS011;25188;51.958;5.842;2022-11-28T17:06:44;68.23;;;34.27;;
39020;SDS011;25188;51.958;5.842;2022-11-28T17:09:11;64.10;;;33.33;;
39020;SDS011;25188;51.958;5.842;2022-11-28T17:11:39;74.33;;;34.10;;
39020;SDS011;25188;51.958;5.842;2022-11-28T17:14:08;63.70;;;32.37;;
39020;SDS011;25188;51.958;5.842;2022-11-28T17:16:36;75.17;;;33.83;;
39020;SDS011;25188;51.958;5.842;2022-11-28T17:19:02;66.07;;;34.47;;
39020;SDS011;25188;51.958;5.842;2022-11-28T17:21:33;68.50;;;32.53;;
39020;SDS011;25188;51.958;5.842;2022-11-28T17:24:14;52.27;;;25.37;;
39020;SDS011;25188;51.958;5.842;2022-11-28T17:26:40;71.80;;;33.10;;
39020;SDS011;25188;51.958;5.842;2022-11-28T17:29:08;68.25;;;32.58;;
39020;SDS011;25188;51.958;5.842;2022-11-28T17:31:34;76.67;;;35.10;;
39020;SDS011;25188;51.958;5.842;2022-11-28T17:34:00;70.05;;;32.08;;
39020;SDS011;25188;51.958;5.842;2022-11-28T17:36:26;71.77;;;32.93;;
39020;SDS011;25188;51.958;5.842;2022-11-28T17:38:52;70.63;;;34.17;;
39020;SDS011;25188;51.958;5.842;2022-11-28T17:41:17;70.82;;;33.25;;
39020;SDS011;25188;51.958;5.842;2022-11-28T17:43:43;74.30;;;34.43;;
39020;SDS011;25188;51.958;5.842;2022-11-28T17:46:09;67.30;;;32.77;;
39020;SDS011;25188;51.958;5.842;2022-11-28T17:48:35;74.40;;;35.58;;
39020;SDS011;25188;51.958;5.842;2022-11-28T17:51:00;71.73;;;34.80;;
39020;SDS011;25188;51.958;5.842;2022-11-28T17:53:27;81.33;;;35.93;;
39020;SDS011;25188;51.958;5.842;2022-11-28T17:55:53;78.80;;;35.57;;
39020;SDS011;25188;51.958;5.842;2022-11-28T17:58:23;75.17;;;35.73;;
39020;SDS011;25188;51.958;5.842;2022-11-28T18:00:50;80.20;;;34.63;;
39020;SDS011;25188;51.958;5.842;2022-11-28T18:03:16;75.13;;;35.15;;
39020;SDS011;25188;51.958;5.842;2022-11-28T18:05:43;75.13;;;36.42;;
39020;SDS011;25188;51.958;5.842;2022-11-28T18:08:11;82.63;;;36.87;;
39020;SDS011;25188;51.958;5.842;2022-11-28T18:10:38;78.07;;;37.00;;
39020;SDS011;25188;51.958;5.842;2022-11-28T18:13:03;81.78;;;36.08;;
39020;SDS011;25188;51.958;5.842;2022-11-28T18:15:30;77.47;;;35.17;;
39020;SDS011;25188;51.958;5.842;2022-11-28T18:17:56;74.37;;;36.87;;
39020;SDS011;25188;51.958;5.842;2022-11-28T18:20:22;68.53;;;35.27;;
39020;SDS011;25188;51.958;5.842;2022-11-28T18:22:52;75.90;;;35.40;;
39020;SDS011;25188;51.958;5.842;2022-11-28T18:25:19;68.53;;;33.20;;
39020;SDS011;25188;51.958;5.842;2022-11-28T18:27:45;71.65;;;34.63;;
39020;SDS011;25188;51.958;5.842;2022-11-28T18:30:11;69.93;;;35.53;;
39020;SDS011;25188;51.958;5.842;2022-11-28T18:32:38;72.27;;;34.87;;
39020;SDS011;25188;51.958;5.842;2022-11-28T18:35:04;81.05;;;33.88;;
39020;SDS011;25188;51.958;5.842;2022-11-28T18:37:31;72.47;;;34.88;;
39020;SDS011;25188;51.958;5.842;2022-11-28T18:39:56;73.97;;;37.03;;
39020;SDS011;25188;51.958;5.842;2022-11-28T18:42:22;72.90;;;36.03;;
39020;SDS011;25188;51.958;5.842;2022-11-28T18:44:47;65.32;;;31.65;;
39020;SDS011;25188;51.958;5.842;2022-11-28T18:47:13;65.45;;;34.33;;
39020;SDS011;25188;51.958;5.842;2022-11-28T18:49:39;67.47;;;34.05;;
39020;SDS011;25188;51.958;5.842;2022-11-28T18:52:04;74.43;;;35.43;;
39020;SDS011;25188;51.958;5.842;2022-11-28T18:54:30;68.22;;;33.03;;
39020;SDS011;25188;51.958;5.842;2022-11-28T18:56:57;111.70;;;32.60;;
39020;SDS011;25188;51.958;5.842;2022-11-28T18:59:23;61.53;;;30.40;;
39020;SDS011;25188;51.958;5.842;2022-11-28T19:01:49;58.90;;;30.75;;
39020;SDS011;25188;51.958;5.842;2022-11-28T19:04:15;68.23;;;32.17;;